Time;durP1;ratioP1;P1;durP2;ratioP2;P2;SDS_P1;SDS_P2;PMS_P1;PMS_P2;Temp;Humidity;BMP_temperature;BMP_pressure;BME280_temperature;BME280_humidity;BME280_pressure;Samples;Min_cycle;Max_cycle;Signal;HPM_P1;HPM_P2
2023/05/15 00:00:05;;;;;;;2.00;0.68;;;9.50;1.00;;;;;;5024717;28;20445;-81
2023/05/15 00:02:35;;;;;;;11.10;0.70;;;9.30;1.00;;;;;;5021067;28;20425;-81
2023/05/15 00:05:03;;;;;;;1.05;0.82;;;9.20;1.00;;;;;;5023475;28;20518;-81
2023/05/15 00:07:30;;;;;;;0.28;0.28;;;9.10;1.00;;;;;;5017290;28;20437;-81
2023/05/15 00:09:57;;;;;;;0.60;0.60;;;9.10;1.00;;;;;;5026154;28;20435;-81
2023/05/15 00:12:24;;;;;;;0.50;0.50;;;9.10;1.00;;;;;;5023194;28;20729;-81
2023/05/15 00:14:53;;;;;;;0.85;0.85;;;9.10;1.00;;;;;;5021767;28;20435;-81
2023/05/15 00:17:26;;;;;;;3.10;0.83;;;9.00;1.00;;;;;;5021330;28;20807;-80
2023/05/15 00:19:57;;;;;;;2.97;1.40;;;8.90;1.00;;;;;;5038174;28;20426;-80
2023/05/15 00:22:29;;;;;;;4.28;2.00;;;8.80;1.00;;;;;;5021306;28;20898;-81
2023/05/15 00:24:55;;;;;;;3.23;2.70;;;8.70;1.00;;;;;;5017944;28;20431;-80
2023/05/15 00:27:22;;;;;;;6.25;2.42;;;8.60;1.00;;;;;;5021493;28;20446;-81
2023/05/15 00:29:56;;;;;;;2.40;1.83;;;8.50;8.60;;;;;;5023016;28;20521;-80
2023/05/15 00:32:22;;;;;;;3.17;1.30;;;8.30;17.40;;;;;;5019906;28;20831;-80
2023/05/15 00:34:49;;;;;;;1.05;0.88;;;8.20;22.60;;;;;;5024952;28;20521;-81
2023/05/15 00:37:16;;;;;;;1.00;0.70;;;8.10;30.00;;;;;;5023091;28;20431;-81
2023/05/15 00:39:44;;;;;;;1.42;1.23;;;8.00;32.50;;;;;;5025023;28;20914;-81
2023/05/15 00:42:12;;;;;;;1.08;1.08;;;7.90;45.30;;;;;;5019197;28;20442;-81
2023/05/15 00:44:40;;;;;;;0.90;0.90;;;7.90;66.10;;;;;;5021895;28;20424;-81
2023/05/15 00:47:09;;;;;;;1.50;1.05;;;7.80;88.80;;;;;;5007395;28;20999;-80
2023/05/15 00:49:36;;;;;;;0.40;0.40;;;7.80;99.90;;;;;;5025389;28;20435;-81
2023/05/15 00:52:07;;;;;;;0.40;0.40;;;7.80;99.90;;;;;;5009602;28;20450;-80
2023/05/15 00:54:36;;;;;;;1.15;1.08;;;7.70;99.90;;;;;;5014949;28;20573;-81
2023/05/15 00:57:07;;;;;;;0.52;0.52;;;7.70;99.90;;;;;;5021141;28;20435;-81
2023/05/15 00:59:35;;;;;;;1.15;0.75;;;7.60;99.90;;;;;;5017341;28;20464;-81
2023/05/15 01:02:01;;;;;;;0.50;0.32;;;7.60;99.90;;;;;;5019103;28;20431;-80
2023/05/15 01:04:29;;;;;;;2.38;1.40;;;7.60;99.90;;;;;;5023894;28;20785;-80
2023/05/15 01:06:56;;;;;;;0.83;0.83;;;7.50;99.90;;;;;;5020130;28;20454;-80
2023/05/15 01:09:24;;;;;;;0.80;0.80;;;7.40;99.90;;;;;;5020967;28;20438;-81
2023/05/15 01:11:53;;;;;;;0.55;0.55;;;7.30;99.90;;;;;;5021886;28;20489;-80
2023/05/15 01:14:20;;;;;;;0.50;0.50;;;7.50;99.90;;;;;;5016371;28;20726;-81
2023/05/15 01:16:47;;;;;;;0.68;0.47;;;7.50;99.90;;;;;;5023563;28;20465;-81
2023/05/15 01:19:14;;;;;;;0.65;0.65;;;7.40;99.90;;;;;;5013729;28;20451;-81
2023/05/15 01:21:56;;;;;;;1.10;0.50;;;7.40;99.90;;;;;;5022542;28;20940;-81
2023/05/15 01:24:52;;;;;;;8.40;0.47;;;7.30;99.90;;;;;;5019940;28;20434;-81
2023/05/15 01:27:34;;;;;;;0.55;0.55;;;7.50;99.90;;;;;;5021415;28;20429;-81
2023/05/15 01:30:19;;;;;;;0.50;0.50;;;7.50;99.90;;;;;;5019730;28;20461;-81
2023/05/15 01:33:06;;;;;;;0.77;0.77;;;7.60;99.90;;;;;;5019945;28;21006;-81
2023/05/15 01:35:44;;;;;;;0.68;0.68;;;7.60;99.90;;;;;;5021164;28;21015;-81
2023/05/15 01:38:33;;;;;;;0.50;0.50;;;7.70;99.90;;;;;;5037577;28;20485;-81
2023/05/15 01:41:27;;;;;;;0.40;0.40;;;7.70;99.90;;;;;;5021362;28;20447;-81
2023/05/15 01:44:10;;;;;;;0.90;0.90;;;7.70;99.90;;;;;;5014947;28;20434;-81
2023/05/15 01:46:44;;;;;;;0.52;0.52;;;7.60;99.90;;;;;;5019211;28;20434;-81
2023/05/15 01:49:18;;;;;;;0.40;0.40;;;7.60;99.90;;;;;;5028362;28;20469;-81
2023/05/15 01:51:48;;;;;;;0.80;0.80;;;7.50;99.90;;;;;;5042088;28;20431;-81
2023/05/15 01:54:16;;;;;;;1.00;0.70;;;7.50;99.90;;;;;;5026485;28;20829;-81
2023/05/15 01:56:44;;;;;;;0.90;0.90;;;7.50;99.90;;;;;;5017471;28;20496;-82
2023/05/15 01:59:15;;;;;;;0.70;0.70;;;7.60;99.90;;;;;;5023565;28;20434;-81
2023/05/15 02:01:44;;;;;;;1.90;0.80;;;7.60;99.90;;;;;;5030795;28;20430;-81
2023/05/15 02:04:12;;;;;;;1.13;1.02;;;7.60;99.90;;;;;;5026783;28;20518;-80
2023/05/15 02:06:40;;;;;;;0.50;0.50;;;7.50;99.90;;;;;;5017983;28;20799;-81
2023/05/15 02:09:08;;;;;;;0.73;0.73;;;7.40;99.90;;;;;;5026668;28;20515;-80
2023/05/15 02:11:35;;;;;;;0.68;0.68;;;7.40;99.90;;;;;;5025146;28;20523;-80
2023/05/15 02:14:04;;;;;;;0.77;0.77;;;7.30;99.90;;;;;;5022819;28;20467;-80
2023/05/15 02:16:31;;;;;;;0.93;0.93;;;7.30;99.90;;;;;;5023653;28;21006;-80
2023/05/15 02:19:05;;;;;;;1.20;0.83;;;7.10;99.90;;;;;;5027461;28;20518;-81
2023/05/15 02:21:32;;;;;;;0.60;0.60;;;7.10;99.90;;;;;;5018733;28;20522;-81
2023/05/15 02:23:59;;;;;;;0.57;0.57;;;7.20;99.90;;;;;;5023770;28;20794;-81
2023/05/15 02:26:53;;;;;;;0.57;0.57;;;7.20;99.90;;;;;;5024399;28;20423;-81
2023/05/15 02:29:52;;;;;;;0.60;0.60;;;7.20;99.90;;;;;;5019084;28;20457;-81
2023/05/15 02:32:40;;;;;;;0.60;0.60;;;7.10;99.90;;;;;;5025542;28;20435;-81
2023/05/15 02:35:41;;;;;;;1.03;0.50;;;7.00;99.90;;;;;;5021085;28;20456;-80
2023/05/15 02:38:12;;;;;;;0.68;0.68;;;7.00;99.90;;;;;;5030812;28;20445;-81
2023/05/15 02:40:39;;;;;;;0.95;0.95;;;7.00;99.90;;;;;;5028044;28;20457;-81
2023/05/15 02:43:09;;;;;;;1.25;1.15;;;7.00;99.90;;;;;;5022287;28;20435;-80
2023/05/15 02:45:38;;;;;;;0.85;0.85;;;7.00;99.90;;;;;;5024870;28;20861;-80
2023/05/15 02:48:06;;;;;;;1.40;0.55;;;6.90;99.90;;;;;;5023594;28;20442;-80
2023/05/15 02:50:33;;;;;;;0.80;0.80;;;6.90;99.90;;;;;;5023142;28;20442;-80
2023/05/15 02:53:04;;;;;;;0.80;0.80;;;6.90;99.90;;;;;;5023497;28;20931;-80
2023/05/15 02:55:36;;;;;;;0.70;0.43;;;7.00;99.90;;;;;;5026674;28;20430;-80
2023/05/15 02:58:04;;;;;;;0.60;0.60;;;7.00;99.90;;;;;;5021657;28;20434;-80
2023/05/15 03:00:31;;;;;;;0.85;0.85;;;7.00;99.90;;;;;;5020837;28;20439;-81
2023/05/15 03:02:57;;;;;;;1.25;0.85;;;7.00;99.90;;;;;;5027137;28;20431;-81
2023/05/15 03:05:24;;;;;;;0.40;0.40;;;7.00;99.90;;;;;;5022198;28;20442;-81
2023/05/15 03:07:52;;;;;;;0.52;0.52;;;7.10;99.90;;;;;;5023596;28;20427;-81
2023/05/15 03:10:22;;;;;;;1.35;0.60;;;7.20;99.90;;;;;;5023533;28;20485;-81
2023/05/15 03:12:49;;;;;;;0.60;0.60;;;7.30;99.90;;;;;;5024580;28;20945;-81
2023/05/15 03:15:16;;;;;;;1.35;0.85;;;7.30;99.90;;;;;;5026023;28;20445;-81
2023/05/15 03:17:43;;;;;;;0.63;0.63;;;7.40;99.90;;;;;;5015725;28;20528;-81
2023/05/15 03:20:10;;;;;;;0.60;0.60;;;7.40;99.90;;;;;;5022244;28;20438;-81
2023/05/15 03:22:37;;;;;;;1.50;0.85;;;7.30;99.90;;;;;;5021754;28;20929;-80
2023/05/15 03:25:04;;;;;;;0.60;0.57;;;7.30;99.90;;;;;;5025222;28;20426;-81
2023/05/15 03:27:30;;;;;;;0.47;0.47;;;7.20;99.90;;;;;;5022523;28;20945;-81
2023/05/15 03:29:57;;;;;;;0.47;0.47;;;7.10;99.90;;;;;;5014310;28;20487;-80
2023/05/15 03:32:26;;;;;;;1.30;0.70;;;7.00;99.90;;;;;;5015267;28;20441;-81
2023/05/15 03:34:52;;;;;;;0.40;0.40;;;6.90;99.90;;;;;;5025785;28;20485;-81
2023/05/15 03:37:19;;;;;;;0.55;0.55;;;6.80;99.90;;;;;;5037503;28;20434;-81
2023/05/15 03:39:46;;;;;;;0.52;0.52;;;6.80;99.90;;;;;;5024235;28;20444;-81
2023/05/15 03:42:13;;;;;;;1.83;0.77;;;6.80;99.90;;;;;;5021039;28;20475;-81
2023/05/15 03:44:40;;;;;;;0.65;0.65;;;6.80;99.90;;;;;;5025641;28;20426;-81
2023/05/15 03:47:06;;;;;;;0.30;0.30;;;6.80;99.90;;;;;;5018306;28;20558;-81
2023/05/15 03:49:33;;;;;;;0.60;0.60;;;6.70;99.90;;;;;;5015184;28;20529;-81
2023/05/15 03:52:00;;;;;;;0.50;0.50;;;6.70;99.90;;;;;;5023044;28;20493;-80
2023/05/15 03:54:27;;;;;;;0.57;0.57;;;6.70;99.90;;;;;;5018798;28;20453;-80
2023/05/15 03:56:54;;;;;;;3.90;0.75;;;6.70;99.90;;;;;;5022944;28;20438;-80
2023/05/15 03:59:20;;;;;;;0.52;0.50;;;6.80;99.90;;;;;;5020889;28;20439;-81
2023/05/15 04:01:47;;;;;;;0.52;0.52;;;6.90;99.90;;;;;;5021237;28;20435;-80
2023/05/15 04:04:30;;;;;;;1.90;0.60;;;6.90;99.90;;;;;;5011922;28;20467;-80
2023/05/15 04:07:03;;;;;;;0.50;0.50;;;7.00;99.90;;;;;;5019500;28;20435;-81
2023/05/15 04:09:30;;;;;;;2.30;0.63;;;7.00;99.90;;;;;;5019743;28;20457;-81
2023/05/15 04:11:57;;;;;;;0.70;0.60;;;7.10;99.90;;;;;;5019412;28;20636;-81
2023/05/15 04:14:23;;;;;;;0.70;0.70;;;7.20;99.90;;;;;;5020064;28;20846;-81
2023/05/15 04:16:50;;;;;;;0.47;0.47;;;7.30;99.90;;;;;;5021174;28;20438;-81
2023/05/15 04:19:17;;;;;;;4.70;0.60;;;7.30;99.90;;;;;;5022411;28;20431;-80
2023/05/15 04:21:44;;;;;;;0.68;0.68;;;7.30;99.90;;;;;;5021307;28;20431;-81
2023/05/15 04:24:11;;;;;;;0.50;0.45;;;7.40;99.90;;;;;;5021585;28;20442;-80
2023/05/15 04:26:38;;;;;;;0.82;0.82;;;7.40;99.90;;;;;;5016223;28;20438;-80
2023/05/15 04:29:04;;;;;;;0.40;0.40;;;7.50;99.90;;;;;;5015767;28;20440;-80
2023/05/15 04:31:31;;;;;;;0.68;0.68;;;7.50;99.90;;;;;;5018895;28;20439;-80
2023/05/15 04:33:58;;;;;;;1.23;0.70;;;7.60;99.90;;;;;;5016389;28;20874;-80
2023/05/15 04:36:25;;;;;;;0.50;0.50;;;7.70;99.90;;;;;;5021755;28;20788;-80
2023/05/15 04:38:52;;;;;;;0.80;0.63;;;8.00;99.90;;;;;;5019749;28;20434;-80
2023/05/15 04:41:18;;;;;;;0.63;0.63;;;8.60;99.90;;;;;;5024213;28;20425;-81
2023/05/15 04:43:50;;;;;;;0.77;0.77;;;9.30;99.90;;;;;;5017330;28;20745;-81
2023/05/15 04:46:17;;;;;;;0.93;0.93;;;9.80;99.90;;;;;;5022608;28;20435;-81
2023/05/15 04:48:43;;;;;;;0.80;0.80;;;10.10;99.90;;;;;;5024793;28;20488;-81
2023/05/15 04:51:11;;;;;;;1.50;0.60;;;10.60;99.90;;;;;;5023280;28;20654;-82
2023/05/15 04:53:37;;;;;;;0.70;0.70;;;10.90;99.90;;;;;;5019837;28;20853;-81
2023/05/15 04:56:04;;;;;;;0.90;0.90;;;11.40;99.90;;;;;;5024905;28;20431;-81
2023/05/15 04:58:33;;;;;;;0.70;0.70;;;12.10;99.90;;;;;;5021099;28;21017;-79
2023/05/15 05:01:00;;;;;;;0.57;0.57;;;12.90;99.90;;;;;;5010891;28;20464;-79
2023/05/15 05:03:29;;;;;;;0.90;0.90;;;13.60;99.90;;;;;;5021344;28;20435;-80
2023/05/15 05:05:56;;;;;;;0.80;0.80;;;14.30;99.90;;;;;;5011588;28;20435;-80
2023/05/15 05:08:23;;;;;;;1.10;1.00;;;14.90;99.90;;;;;;5036132;28;20435;-80
2023/05/15 05:10:59;;;;;;;0.90;0.90;;;15.40;99.90;;;;;;5023957;28;20727;-80
2023/05/15 05:13:28;;;;;;;1.30;1.30;;;15.90;99.90;;;;;;5018896;28;20439;-80
2023/05/15 05:15:55;;;;;;;0.80;0.80;;;16.40;99.90;;;;;;5024717;28;20440;-81
2023/05/15 05:18:22;;;;;;;0.70;0.70;;;16.60;1.00;;;;;;5029937;28;20442;-81
2023/05/15 05:20:49;;;;;;;0.80;0.80;;;17.00;99.90;;;;;;5026883;28;20436;-80
2023/05/15 05:23:17;;;;;;;0.70;0.70;;;17.30;99.90;;;;;;5026028;28;20522;-80
2023/05/15 05:25:44;;;;;;;0.80;0.80;;;17.60;99.90;;;;;;5024085;28;20461;-81
2023/05/15 05:28:10;;;;;;;0.75;0.75;;;17.90;99.90;;;;;;5021956;28;20795;-81
2023/05/15 05:30:37;;;;;;;0.80;0.80;;;18.30;99.90;;;;;;5019855;28;20545;-81
2023/05/15 05:33:07;;;;;;;0.70;0.70;;;18.90;99.90;;;;;;5019152;28;20999;-81
2023/05/15 05:35:34;;;;;;;0.60;0.60;;;19.40;99.90;;;;;;5020514;28;20443;-81
2023/05/15 05:38:00;;;;;;;0.80;0.80;;;19.90;99.90;;;;;;5024720;28;21039;-81
2023/05/15 05:40:27;;;;;;;1.25;0.65;;;19.90;99.90;;;;;;5019746;28;20956;-81
2023/05/15 05:42:54;;;;;;;0.93;0.90;;;20.10;99.90;;;;;;5022878;28;20435;-81
2023/05/15 05:45:21;;;;;;;1.23;0.95;;;20.40;99.90;;;;;;5016429;28;20955;-81
2023/05/15 05:47:48;;;;;;;0.97;0.97;;;20.60;99.90;;;;;;5016083;28;20441;-80
2023/05/15 05:50:15;;;;;;;0.80;0.80;;;20.80;99.90;;;;;;5020290;28;20435;-81
2023/05/15 05:52:42;;;;;;;0.70;0.70;;;20.60;99.90;;;;;;5021348;28;20961;-80
2023/05/15 05:55:09;;;;;;;0.80;0.80;;;20.20;99.90;;;;;;5016313;28;20529;-80
2023/05/15 05:57:35;;;;;;;0.82;0.82;;;19.60;99.90;;;;;;5015021;28;20910;-82
2023/05/15 06:00:06;;;;;;;0.80;0.80;;;19.40;99.90;;;;;;5023322;28;20434;-76
2023/05/15 06:02:32;;;;;;;1.30;0.80;;;19.80;99.90;;;;;;5021742;28;20431;-74
2023/05/15 06:04:59;;;;;;;0.52;0.52;;;20.40;99.90;;;;;;5019897;28;20518;-75
2023/05/15 06:07:27;;;;;;;0.83;0.83;;;21.00;99.90;;;;;;5020492;28;20565;-76
2023/05/15 06:09:53;;;;;;;0.98;0.98;;;21.30;99.90;;;;;;5016778;28;20442;-76
2023/05/15 06:12:20;;;;;;;3.00;0.60;;;21.40;99.90;;;;;;5008051;28;20448;-76
2023/05/15 06:14:48;;;;;;;0.80;0.80;;;21.60;99.90;;;;;;5007035;28;20468;-76
2023/05/15 06:17:15;;;;;;;0.70;0.70;;;21.20;99.90;;;;;;5023109;28;20454;-75
2023/05/15 06:19:42;;;;;;;0.60;0.60;;;20.30;99.90;;;;;;5022341;28;20435;-76
2023/05/15 06:22:09;;;;;;;0.57;0.57;;;19.50;99.90;;;;;;5022823;28;20446;-76
2023/05/15 06:24:35;;;;;;;0.75;0.75;;;18.80;99.90;;;;;;5022104;28;20801;-76
2023/05/15 06:27:02;;;;;;;1.10;0.70;;;18.40;99.90;;;;;;5022863;28;20431;-80
2023/05/15 06:29:29;;;;;;;0.65;0.65;;;17.80;99.90;;;;;;5014431;28;20452;-82
2023/05/15 06:31:56;;;;;;;0.80;0.80;;;17.90;99.90;;;;;;5012182;28;21171;-82
2023/05/15 06:34:23;;;;;;;0.93;0.93;;;18.70;99.90;;;;;;5013070;28;20430;-82
2023/05/15 06:36:51;;;;;;;0.90;0.90;;;19.90;99.90;;;;;;5016310;28;20469;-82
2023/05/15 06:39:18;;;;;;;0.90;0.90;;;20.80;99.90;;;;;;5021362;28;20473;-83
2023/05/15 06:41:44;;;;;;;0.90;0.90;;;21.80;99.90;;;;;;5024011;28;20547;-83
2023/05/15 06:44:25;;;;;;;0.77;0.77;;;22.50;99.90;;;;;;5030266;28;20435;-81
2023/05/15 06:46:51;;;;;;;1.20;1.10;;;23.30;99.90;;;;;;5024379;28;20434;-81
2023/05/15 06:49:18;;;;;;;0.85;0.85;;;23.80;99.90;;;;;;5022897;28;20434;-81
2023/05/15 06:51:45;;;;;;;0.70;0.70;;;23.60;99.90;;;;;;5022116;28;20477;-81
2023/05/15 06:54:15;;;;;;;0.77;0.77;;;23.70;99.90;;;;;;5024115;28;20469;-81
2023/05/15 06:56:42;;;;;;;0.93;0.93;;;23.50;99.70;;;;;;5019748;28;20504;-81
2023/05/15 06:59:08;;;;;;;0.90;0.90;;;22.80;99.70;;;;;;5017567;28;20971;-81
2023/05/15 07:01:35;;;;;;;0.65;0.65;;;22.10;99.60;;;;;;5024930;28;20429;-81
2023/05/15 07:04:02;;;;;;;0.80;0.80;;;22.30;99.90;;;;;;5016700;28;20466;-81
2023/05/15 07:06:30;;;;;;;2.22;1.10;;;22.40;99.90;;;;;;5024851;28;20439;-80
2023/05/15 07:08:58;;;;;;;0.77;0.77;;;22.20;99.90;;;;;;5022775;28;20490;-81
2023/05/15 07:11:25;;;;;;;0.80;0.80;;;22.10;99.90;;;;;;5030099;28;20441;-82
2023/05/15 07:13:52;;;;;;;0.90;0.90;;;22.80;99.90;;;;;;5022834;28;21024;-82
2023/05/15 07:16:19;;;;;;;0.80;0.80;;;22.90;99.20;;;;;;5022672;28;20853;-82
2023/05/15 07:18:46;;;;;;;1.40;1.00;;;23.50;99.30;;;;;;5037021;28;21168;-82
2023/05/15 07:21:13;;;;;;;0.82;0.82;;;24.00;99.40;;;;;;5022912;28;21035;-82
2023/05/15 07:23:43;;;;;;;0.50;0.50;;;24.50;98.50;;;;;;5021433;28;20437;-82
2023/05/15 07:26:16;;;;;;;0.88;0.88;;;24.60;98.10;;;;;;5023570;28;20437;-82
2023/05/15 07:28:53;;;;;;;2.50;0.82;;;;;;;;;;5025527;28;20435;-82
2023/05/15 07:31:20;;;;;;;0.65;0.60;;;24.90;97.70;;;;;;5020152;28;20462;-81
2023/05/15 07:33:47;;;;;;;1.00;1.00;;;25.60;97.30;;;;;;5019780;28;20859;-82
2023/05/15 07:36:14;;;;;;;0.70;0.70;;;26.10;96.00;;;;;;5015610;28;20882;-81
2023/05/15 07:38:40;;;;;;;0.73;0.70;;;26.10;94.10;;;;;;5022646;28;20514;-82
2023/05/15 07:41:07;;;;;;;0.88;0.70;;;24.90;93.50;;;;;;5028570;28;20436;-81
2023/05/15 07:43:35;;;;;;;0.85;0.80;;;23.50;94.10;;;;;;5028812;28;20437;-81
2023/05/15 07:46:05;;;;;;;0.80;0.80;;;22.80;95.00;;;;;;5017017;28;20432;-81
2023/05/15 07:48:32;;;;;;;0.80;0.80;;;22.00;95.50;;;;;;5019058;28;20433;-81
2023/05/15 07:50:59;;;;;;;0.93;0.90;;;21.20;95.80;;;;;;5020490;28;20446;-80
2023/05/15 07:53:26;;;;;;;1.65;0.95;;;20.80;96.90;;;;;;5022066;28;20432;-81
2023/05/15 07:55:53;;;;;;;1.40;1.30;;;20.80;97.90;;;;;;5024655;28;20472;-81
2023/05/15 07:58:20;;;;;;;0.93;0.93;;;20.80;97.90;;;;;;5014913;28;20443;-81
2023/05/15 08:00:47;;;;;;;1.00;0.90;;;21.10;98.20;;;;;;5017933;28;20447;-81
2023/05/15 08:03:14;;;;;;;1.48;0.98;;;21.70;98.40;;;;;;5010961;28;20780;-81
2023/05/15 08:05:41;;;;;;;1.30;1.20;;;21.70;98.60;;;;;;5017456;28;20442;-81
2023/05/15 08:08:08;;;;;;;1.57;1.20;;;21.80;98.30;;;;;;5016654;28;20461;-81
2023/05/15 08:10:35;;;;;;;0.95;0.95;;;22.20;99.20;;;;;;5016635;28;20445;-82
2023/05/15 08:13:02;;;;;;;1.00;1.00;;;23.00;98.40;;;;;;5025661;28;20525;-80
2023/05/15 08:15:32;;;;;;;0.98;0.98;;;23.30;97.40;;;;;;5025994;28;20438;-81
2023/05/15 08:17:59;;;;;;;1.27;1.13;;;23.10;97.00;;;;;;5021349;28;20438;-81
2023/05/15 08:20:26;;;;;;;0.98;0.98;;;23.20;97.20;;;;;;5016952;28;20436;-81
2023/05/15 08:22:52;;;;;;;1.03;1.03;;;23.20;96.70;;;;;;5021222;28;20504;-81
2023/05/15 08:25:19;;;;;;;1.30;1.20;;;23.40;97.40;;;;;;5023634;28;20541;-81
2023/05/15 08:27:46;;;;;;;1.05;1.05;;;23.60;97.10;;;;;;5025393;28;20430;-82
2023/05/15 08:30:13;;;;;;;1.10;1.10;;;23.60;96.00;;;;;;5020923;28;20451;-82
2023/05/15 08:32:41;;;;;;;1.15;1.15;;;23.80;96.80;;;;;;5017252;28;20514;-81
2023/05/15 08:35:09;;;;;;;1.25;1.08;;;23.90;96.20;;;;;;5020340;28;20442;-81
2023/05/15 08:37:38;;;;;;;1.10;1.10;;;24.10;96.90;;;;;;5015756;28;20430;-81
2023/05/15 08:40:06;;;;;;;1.73;1.63;;;24.50;97.00;;;;;;5020929;28;20433;-81
2023/05/15 08:42:50;;;;;;;1.92;1.63;;;24.90;96.50;;;;;;5022932;28;20431;-83
2023/05/15 08:45:17;;;;;;;1.20;1.20;;;24.30;95.70;;;;;;5024961;28;20933;-81
2023/05/15 08:47:43;;;;;;;2.20;1.97;;;23.70;95.90;;;;;;5019198;28;20474;-81
2023/05/15 08:50:15;;;;;;;2.03;1.75;;;24.00;96.60;;;;;;5020120;28;20475;-81
2023/05/15 08:52:46;;;;;;;1.48;1.38;;;24.20;96.60;;;;;;5023268;28;20996;-80
2023/05/15 08:55:14;;;;;;;1.70;1.60;;;23.50;95.90;;;;;;5024058;28;21048;-81
2023/05/15 08:57:41;;;;;;;1.33;1.23;;;23.40;95.70;;;;;;5018308;28;20439;-81
2023/05/15 09:00:13;;;;;;;1.30;1.20;;;23.10;96.30;;;;;;5034653;28;20526;-81
2023/05/15 09:02:41;;;;;;;1.90;1.55;;;23.10;96.20;;;;;;5025427;28;20435;-81
2023/05/15 09:05:08;;;;;;;1.45;1.35;;;23.00;96.50;;;;;;5021034;28;20431;-82
2023/05/15 09:07:37;;;;;;;4.33;1.70;;;23.20;95.60;;;;;;5023623;28;20553;-81
2023/05/15 09:10:05;;;;;;;2.20;2.00;;;23.20;95.60;;;;;;5018774;28;20867;-82
2023/05/15 09:12:43;;;;;;;3.33;2.03;;;23.40;96.00;;;;;;5016905;28;20444;-82
2023/05/15 09:15:20;;;;;;;3.20;2.50;;;23.60;96.30;;;;;;5011579;28;20514;-81
2023/05/15 09:17:47;;;;;;;5.07;2.50;;;23.90;96.90;;;;;;5025015;28;20949;-82
2023/05/15 09:20:37;;;;;;;5.18;2.55;;;24.00;96.50;;;;;;5020789;28;20441;-82
2023/05/15 09:23:20;;;;;;;5.07;2.65;;;24.20;96.60;;;;;;5009495;28;20591;-81
2023/05/15 09:25:52;;;;;;;3.10;2.78;;;24.40;96.30;;;;;;5021242;28;20529;-82
2023/05/15 09:28:33;;;;;;;4.25;2.47;;;24.70;96.40;;;;;;5023786;28;20492;-82
2023/05/15 09:31:01;;;;;;;4.65;3.13;;;25.00;96.00;;;;;;5017540;28;20440;-81
2023/05/15 09:33:33;;;;;;;5.38;3.20;;;25.50;95.80;;;;;;5021244;28;20419;-82
2023/05/15 09:36:01;;;;;;;3.40;2.67;;;26.10;95.30;;;;;;5016151;28;20922;-81
2023/05/15 09:38:29;;;;;;;2.72;2.42;;;26.20;95.00;;;;;;5022743;28;20450;-81
2023/05/15 09:41:05;;;;;;;3.13;2.60;;;26.00;94.40;;;;;;5017355;28;20426;-82
2023/05/15 09:43:39;;;;;;;4.45;2.92;;;25.80;93.70;;;;;;5021795;28;20430;-82
2023/05/15 09:46:13;;;;;;;4.75;3.42;;;25.60;94.20;;;;;;5019763;28;20527;-82
2023/05/15 09:48:40;;;;;;;3.85;2.65;;;25.40;94.30;;;;;;5016394;28;20478;-81
2023/05/15 09:51:15;;;;;;;6.90;2.67;;;25.30;94.50;;;;;;5029503;28;20443;-83
2023/05/15 09:53:46;;;;;;;6.15;2.75;;;25.60;94.90;;;;;;5018325;28;20448;-82
2023/05/15 09:56:13;;;;;;;5.03;3.03;;;25.70;94.50;;;;;;5014820;28;20468;-81
2023/05/15 09:58:53;;;;;;;3.17;2.70;;;25.90;94.60;;;;;;5022112;28;20435;-81
2023/05/15 10:01:21;;;;;;;2.83;2.50;;;25.70;94.00;;;;;;5022841;28;20446;-82
2023/05/15 10:03:58;;;;;;;3.17;2.70;;;25.80;93.90;;;;;;5017696;28;20433;-82
2023/05/15 10:06:25;;;;;;;3.15;2.63;;;25.60;94.00;;;;;;5016584;28;20639;-82
2023/05/15 10:08:53;;;;;;;3.45;2.63;;;25.70;93.90;;;;;;5026642;28;20432;-81
2023/05/15 10:11:22;;;;;;;4.03;3.22;;;25.30;93.70;;;;;;5023036;28;20931;-80
2023/05/15 10:13:49;;;;;;;4.22;2.78;;;24.80;93.80;;;;;;5024116;28;21198;-80
2023/05/15 10:16:21;;;;;;;3.10;2.72;;;24.00;94.00;;;;;;5027425;28;20437;-81
2023/05/15 10:18:50;;;;;;;2.65;2.30;;;24.00;94.50;;;;;;5019767;28;20443;-82
2023/05/15 10:21:18;;;;;;;2.65;2.45;;;24.70;94.50;;;;;;5018413;28;20434;-82
2023/05/15 10:23:49;;;;;;;3.53;2.88;;;25.30;94.70;;;;;;5017128;28;20875;-82
2023/05/15 10:26:38;;;;;;;4.07;3.30;;;25.60;94.00;;;;;;5021636;28;20580;-82
2023/05/15 10:29:17;;;;;;;6.15;3.08;;;24.90;93.70;;;;;;5012634;28;20942;-79
2023/05/15 10:31:47;;;;;;;4.43;2.63;;;23.90;93.70;;;;;;5023541;28;22480;-81
2023/05/15 10:34:15;;;;;;;4.27;2.97;;;22.80;94.90;;;;;;5020858;28;20441;-80
2023/05/15 10:36:42;;;;;;;3.67;3.17;;;22.10;95.70;;;;;;5024403;28;20451;-81
2023/05/15 10:39:09;;;;;;;3.53;2.63;;;21.70;96.70;;;;;;5026405;28;20464;-80
2023/05/15 10:41:39;;;;;;;2.42;2.33;;;21.50;96.60;;;;;;5017045;28;20439;-81
2023/05/15 10:44:06;;;;;;;4.10;2.97;;;21.20;97.00;;;;;;5025501;28;20434;-80
2023/05/15 10:46:35;;;;;;;2.30;2.00;;;21.20;97.50;;;;;;5022703;28;20454;-81
2023/05/15 10:49:03;;;;;;;2.05;1.80;;;21.90;98.00;;;;;;5026031;28;20470;-82
2023/05/15 10:51:35;;;;;;;2.30;2.03;;;22.60;96.90;;;;;;5024621;28;20433;-81
2023/05/15 10:54:02;;;;;;;3.13;1.88;;;23.20;96.30;;;;;;5003166;28;20446;-81
2023/05/15 10:56:31;;;;;;;4.10;2.13;;;23.90;96.20;;;;;;5023481;28;20445;-82
2023/05/15 10:59:06;;;;;;;2.83;2.53;;;24.20;95.20;;;;;;5028357;28;20465;-79
2023/05/15 11:01:35;;;;;;;3.00;2.23;;;23.70;94.80;;;;;;5035506;28;20481;-79
2023/05/15 11:04:15;;;;;;;4.20;2.40;;;22.80;94.40;;;;;;5035368;28;21017;-81
2023/05/15 11:06:44;;;;;;;3.13;2.10;;;21.80;95.10;;;;;;5031881;28;20462;-80
2023/05/15 11:09:23;;;;;;;2.13;1.98;;;21.30;95.80;;;;;;5033380;28;20462;-80
2023/05/15 11:11:56;;;;;;;3.90;2.23;;;20.70;96.30;;;;;;5040848;28;20503;-79
2023/05/15 11:14:34;;;;;;;1.80;1.67;;;20.50;96.70;;;;;;5025700;28;20442;-80
2023/05/15 11:17:03;;;;;;;3.30;2.22;;;20.50;97.10;;;;;;5032547;28;20442;-80
2023/05/15 11:19:34;;;;;;;2.15;1.45;;;20.50;97.10;;;;;;5028841;28;20995;-80
2023/05/15 11:22:07;;;;;;;2.10;1.40;;;20.90;96.30;;;;;;5027907;28;20451;-80
2023/05/15 11:24:54;;;;;;;2.28;2.08;;;21.80;96.30;;;;;;5028736;28;20982;-80
2023/05/15 11:27:23;;;;;;;2.67;1.88;;;22.70;96.00;;;;;;5024446;28;20431;-81
2023/05/15 11:30:09;;;;;;;2.65;1.80;;;23.60;94.40;;;;;;5015166;28;20435;-79
2023/05/15 11:33:00;;;;;;;3.05;2.08;;;23.90;93.20;;;;;;5025566;28;20442;-78
2023/05/15 11:35:27;;;;;;;2.78;1.58;;;23.60;92.70;;;;;;5034757;28;21555;-80
2023/05/15 11:38:01;;;;;;;3.10;2.10;;;23.90;92.80;;;;;;5022898;28;20439;-79
2023/05/15 11:40:30;;;;;;;2.22;1.75;;;24.40;93.20;;;;;;5040413;28;20550;-79
2023/05/15 11:43:01;;;;;;;2.55;1.70;;;24.90;93.50;;;;;;5025105;28;20442;-80
2023/05/15 11:45:33;;;;;;;3.28;2.72;;;25.60;92.40;;;;;;5021329;28;20446;-79
2023/05/15 11:48:02;;;;;;;2.13;1.90;;;26.20;92.20;;;;;;5020847;28;20506;-79
2023/05/15 11:50:33;;;;;;;2.00;1.88;;;26.80;91.50;;;;;;5016664;28;20451;-80
2023/05/15 11:53:07;;;;;;;1.85;1.73;;;26.40;89.10;;;;;;5021225;28;20455;-79
2023/05/15 11:55:36;;;;;;;1.83;1.65;;;26.20;88.80;;;;;;5029523;28;20442;-79
2023/05/15 11:58:04;;;;;;;1.65;1.55;;;25.90;89.00;;;;;;5028194;28;20437;-80
2023/05/15 12:00:31;;;;;;;4.73;1.93;;;25.30;89.10;;;;;;5028766;28;20439;-80
2023/05/15 12:03:02;;;;;;;1.90;1.80;;;24.40;89.00;;;;;;5032773;28;20800;-78
2023/05/15 12:05:30;;;;;;;3.47;1.67;;;23.60;89.20;;;;;;5029235;28;20756;-79
2023/05/15 12:07:57;;;;;;;2.58;2.28;;;22.90;89.70;;;;;;5026030;28;20856;-78
2023/05/15 12:10:24;;;;;;;1.83;1.73;;;23.00;90.90;;;;;;5026448;28;20767;-80
2023/05/15 12:12:51;;;;;;;1.88;1.40;;;23.40;90.20;;;;;;5026291;28;20453;-81
2023/05/15 12:15:18;;;;;;;3.00;2.00;;;23.50;89.10;;;;;;5024911;28;20516;-78
2023/05/15 12:17:46;;;;;;;2.40;2.20;;;23.10;89.00;;;;;;5026061;28;20786;-79
2023/05/15 12:20:17;;;;;;;3.42;2.30;;;23.30;90.20;;;;;;5023335;28;20436;-79
2023/05/15 12:22:44;;;;;;;2.75;1.75;;;23.90;90.50;;;;;;5015208;28;20437;-78
2023/05/15 12:25:13;;;;;;;1.60;1.50;;;24.50;90.60;;;;;;5022774;28;20445;-78
2023/05/15 12:27:41;;;;;;;1.90;1.50;;;24.50;89.70;;;;;;5030184;28;20787;-79
2023/05/15 12:30:12;;;;;;;2.20;1.90;;;24.20;88.20;;;;;;5023480;28;22069;-80
2023/05/15 12:32:40;;;;;;;1.90;1.67;;;24.40;89.10;;;;;;5038158;28;20433;-81
2023/05/15 12:35:08;;;;;;;1.70;1.30;;;24.60;86.70;;;;;;5033335;28;20842;-79
2023/05/15 12:37:35;;;;;;;1.50;1.25;;;24.00;86.40;;;;;;5034060;28;20902;-80
2023/05/15 12:40:10;;;;;;;1.25;1.25;;;23.10;87.50;;;;;;5031090;28;20981;-78
2023/05/15 12:42:41;;;;;;;1.60;1.50;;;22.80;88.40;;;;;;5032607;28;20464;-78
2023/05/15 12:45:15;;;;;;;0.90;0.90;;;22.80;89.00;;;;;;5031897;28;20531;-78
2023/05/15 12:47:44;;;;;;;8.07;1.45;;;23.30;88.30;;;;;;5032276;28;20849;-79
2023/05/15 12:50:19;;;;;;;1.30;1.20;;;24.10;87.40;;;;;;5029361;28;20922;-79
2023/05/15 12:52:50;;;;;;;0.98;0.98;;;24.20;84.80;;;;;;5027810;28;20426;-77
2023/05/15 12:55:24;;;;;;;1.30;1.23;;;24.00;86.00;;;;;;5031299;28;20435;-78
2023/05/15 12:58:03;;;;;;;1.03;1.03;;;23.90;85.10;;;;;;5041327;28;20444;-76
2023/05/15 13:00:30;;;;;;;1.50;1.40;;;23.70;86.00;;;;;;5019905;28;20534;-77
2023/05/15 13:02:58;;;;;;;1.52;1.42;;;23.70;86.90;;;;;;5020943;28;20431;-78